createdAt,value
2023-10-20T00:00:13.815Z,965.70
2023-10-20T00:01:13.827Z,965.65
2023-10-20T00:02:13.837Z,965.65
2023-10-20T00:03:13.900Z,965.58
2023-10-20T00:04:13.784Z,965.60
2023-10-20T00:05:13.778Z,965.60
2023-10-20T00:06:13.709Z,965.56
2023-10-20T00:07:13.725Z,965.53
2023-10-20T00:08:13.750Z,965.51
2023-10-20T00:09:13.686Z,965.54
2023-10-20T00:10:13.650Z,965.52
2023-10-20T00:11:13.741Z,965.59
2023-10-20T00:12:13.644Z,965.57
2023-10-20T00:13:13.635Z,965.52
2023-10-20T00:14:13.662Z,965.55
2023-10-20T00:15:13.616Z,965.48
2023-10-20T00:16:13.620Z,965.48
2023-10-20T00:17:13.636Z,965.52
2023-10-20T00:18:13.635Z,965.50
2023-10-20T00:19:13.562Z,965.50
2023-10-20T00:20:13.686Z,965.48
2023-10-20T00:21:13.522Z,965.51
2023-10-20T00:22:13.495Z,965.47
2023-10-20T00:23:13.520Z,965.49
2023-10-20T00:24:13.476Z,965.47
2023-10-20T00:25:13.600Z,965.42
2023-10-20T00:26:13.491Z,965.43
2023-10-20T00:27:13.458Z,965.37
2023-10-20T00:28:13.413Z,965.35
2023-10-20T00:29:13.493Z,965.32
2023-10-20T00:30:13.383Z,965.28
2023-10-20T00:31:13.440Z,965.31
2023-10-20T00:32:13.439Z,965.33
2023-10-20T00:33:13.388Z,965.33
2023-10-20T00:34:13.349Z,965.33
2023-10-20T00:35:13.358Z,965.26
2023-10-20T00:36:13.331Z,965.31
2023-10-20T00:37:13.318Z,965.22
2023-10-20T00:38:13.329Z,965.19
2023-10-20T00:39:13.288Z,965.20
2023-10-20T00:40:13.249Z,965.17
2023-10-20T00:41:13.268Z,965.20
2023-10-20T00:42:13.220Z,965.21
2023-10-20T00:43:13.233Z,965.17
2023-10-20T00:44:13.294Z,965.21
2023-10-20T00:45:13.210Z,965.22
2023-10-20T00:46:13.202Z,965.25
2023-10-20T00:47:13.218Z,965.26
2023-10-20T00:48:13.236Z,965.31
2023-10-20T00:49:13.234Z,965.25
2023-10-20T00:50:13.467Z,965.25
2023-10-20T00:51:13.136Z,965.21
2023-10-20T00:52:13.092Z,965.22
2023-10-20T00:53:13.165Z,965.23
2023-10-20T00:54:13.072Z,965.21
2023-10-20T00:55:13.076Z,965.17
2023-10-20T00:56:13.074Z,965.21
2023-10-20T00:57:13.050Z,965.18
2023-10-20T00:58:13.004Z,965.21
2023-10-20T00:59:13.059Z,965.19
2023-10-20T01:00:12.988Z,965.20
2023-10-20T01:01:13.009Z,965.17
2023-10-20T01:02:13.059Z,965.17
2023-10-20T01:03:13.102Z,965.16
2023-10-20T01:04:12.960Z,965.16
2023-10-20T01:05:13.022Z,965.15
2023-10-20T01:06:12.902Z,965.11
2023-10-20T01:07:12.926Z,965.12
2023-10-20T01:08:12.930Z,965.11
2023-10-20T01:09:12.910Z,965.11
2023-10-20T01:10:12.897Z,965.10
2023-10-20T01:11:12.923Z,965.08
2023-10-20T01:12:12.828Z,965.04
2023-10-20T01:13:12.840Z,965.01
2023-10-20T01:14:12.858Z,965.02
2023-10-20T01:15:12.806Z,965.05
2023-10-20T01:16:12.821Z,965.01
2023-10-20T01:17:12.792Z,965.03
2023-10-20T01:18:12.780Z,964.95
2023-10-20T01:19:12.747Z,964.98
2023-10-20T01:20:12.778Z,964.93
2023-10-20T01:21:12.721Z,964.93
2023-10-20T01:22:12.700Z,964.97
2023-10-20T01:23:12.741Z,964.96
2023-10-20T01:24:12.661Z,965.02
2023-10-20T01:25:12.687Z,965.02
2023-10-20T01:26:12.679Z,965.01
2023-10-20T01:27:12.646Z,965.00
2023-10-20T01:28:12.623Z,964.98
2023-10-20T01:29:12.739Z,964.94
2023-10-20T01:30:12.612Z,964.94
2023-10-20T01:31:12.592Z,964.95
2023-10-20T01:32:12.605Z,964.93
2023-10-20T01:33:12.600Z,964.90
2023-10-20T01:34:12.563Z,964.90
2023-10-20T01:35:12.562Z,964.88
2023-10-20T01:36:12.500Z,964.81
2023-10-20T01:37:16.447Z,964.78
2023-10-20T01:38:12.529Z,964.77
2023-10-20T01:39:12.486Z,964.78
2023-10-20T01:40:12.461Z,964.75
2023-10-20T01:41:12.484Z,964.71
2023-10-20T01:42:12.448Z,964.73
2023-10-20T01:43:12.425Z,964.72
2023-10-20T01:44:12.465Z,964.71
2023-10-20T01:45:12.402Z,964.65
2023-10-20T01:46:12.407Z,964.61
2023-10-20T01:47:12.419Z,964.62
2023-10-20T01:48:12.372Z,964.57
2023-10-20T01:49:12.349Z,964.46
2023-10-20T01:50:12.363Z,964.49
2023-10-20T01:51:12.341Z,964.40
2023-10-20T01:52:12.290Z,964.39
2023-10-20T01:53:12.338Z,964.38
2023-10-20T01:54:12.260Z,964.28
2023-10-20T01:55:12.314Z,964.32
2023-10-20T01:56:12.293Z,964.32
2023-10-20T01:57:12.264Z,964.34
2023-10-20T01:58:12.202Z,964.31
2023-10-20T01:59:12.260Z,964.29
2023-10-20T02:00:12.168Z,964.29
2023-10-20T02:01:12.211Z,964.21
2023-10-20T02:02:12.308Z,964.21
2023-10-20T02:03:12.242Z,964.17
2023-10-20T02:04:12.167Z,964.22
2023-10-20T02:05:12.183Z,964.16
2023-10-20T02:06:12.103Z,964.08
2023-10-20T02:07:12.108Z,964.14
2023-10-20T02:08:12.137Z,964.08
2023-10-20T02:09:12.078Z,964.09
2023-10-20T02:10:12.063Z,963.98
2023-10-20T02:11:12.112Z,964.03
2023-10-20T02:12:12.042Z,964.01
2023-10-20T02:13:12.036Z,963.97
2023-10-20T02:14:12.023Z,963.96
2023-10-20T02:15:12.008Z,963.90
2023-10-20T02:16:11.960Z,963.93
2023-10-20T02:17:12.082Z,963.92
2023-10-20T02:18:12.009Z,963.92
2023-10-20T02:19:12.268Z,963.92
2023-10-20T02:20:12.022Z,963.98
2023-10-20T02:21:11.935Z,963.96
2023-10-20T02:22:11.890Z,963.98
2023-10-20T02:23:11.917Z,963.99
2023-10-20T02:24:11.900Z,963.96
2023-10-20T02:25:11.880Z,963.90
2023-10-20T02:26:11.955Z,963.89
2023-10-20T02:27:11.891Z,963.91
2023-10-20T02:28:11.911Z,963.85
2023-10-20T02:29:11.954Z,963.82
2023-10-20T02:30:11.771Z,963.80
2023-10-20T02:31:11.869Z,963.76
2023-10-20T02:32:11.808Z,963.76
2023-10-20T02:33:11.791Z,963.68
2023-10-20T02:34:11.725Z,963.69
2023-10-20T02:35:11.763Z,963.71
2023-10-20T02:36:11.707Z,963.78
2023-10-20T02:37:11.711Z,963.73
2023-10-20T02:38:11.710Z,963.79
2023-10-20T02:39:11.693Z,963.81
2023-10-20T02:40:11.657Z,963.83
2023-10-20T02:41:11.672Z,963.84
2023-10-20T02:42:11.617Z,963.84
2023-10-20T02:43:12.414Z,963.86
2023-10-20T02:44:11.645Z,963.83
2023-10-20T02:45:11.600Z,963.85
2023-10-20T02:46:11.604Z,963.83
2023-10-20T02:47:11.633Z,963.80
2023-10-20T02:48:11.563Z,963.80
2023-10-20T02:49:11.537Z,963.80
2023-10-20T02:50:11.617Z,963.81
2023-10-20T02:51:11.531Z,963.76
2023-10-20T02:52:11.484Z,963.77
2023-10-20T02:53:11.530Z,963.76
2023-10-20T02:54:11.449Z,963.70
2023-10-20T02:55:11.471Z,963.68
2023-10-20T02:56:11.513Z,963.65
2023-10-20T02:57:11.442Z,963.62
2023-10-20T02:58:11.412Z,963.60
2023-10-20T02:59:11.452Z,963.61
2023-10-20T03:00:11.384Z,963.66
2023-10-20T03:01:11.408Z,963.64
2023-10-20T03:02:11.473Z,963.67
2023-10-20T03:03:11.485Z,963.65
2023-10-20T03:04:11.429Z,963.66
2023-10-20T03:05:11.452Z,963.60
2023-10-20T03:06:11.292Z,963.65
2023-10-20T03:07:11.295Z,963.57
2023-10-20T03:08:11.289Z,963.55
2023-10-20T03:09:11.279Z,963.51
2023-10-20T03:10:11.249Z,963.52
2023-10-20T03:11:11.328Z,963.48
2023-10-20T03:12:11.221Z,963.42
2023-10-20T03:13:11.220Z,963.44
2023-10-20T03:14:11.255Z,963.40
2023-10-20T03:15:11.196Z,963.38
2023-10-20T03:16:11.229Z,963.33
2023-10-20T03:17:11.260Z,963.30
2023-10-20T03:18:11.163Z,963.19
2023-10-20T03:19:11.869Z,963.24
2023-10-20T03:20:11.158Z,963.12
2023-10-20T03:21:11.108Z,963.09
2023-10-20T03:22:11.106Z,963.05
2023-10-20T03:23:11.086Z,963.18
2023-10-20T03:24:11.087Z,963.14
2023-10-20T03:25:11.038Z,963.16
2023-10-20T03:26:11.138Z,963.10
2023-10-20T03:27:11.058Z,963.15
2023-10-20T03:28:11.016Z,963.22
2023-10-20T03:29:11.045Z,963.21
2023-10-20T03:30:11.008Z,963.21
2023-10-20T03:31:10.993Z,963.21
2023-10-20T03:32:11.014Z,963.14
2023-10-20T03:33:10.945Z,963.19
2023-10-20T03:34:10.946Z,963.06
2023-10-20T03:35:10.998Z,963.01
2023-10-20T03:36:10.913Z,963.02
2023-10-20T03:37:10.873Z,963.03
2023-10-20T03:38:10.949Z,963.03
2023-10-20T03:39:10.855Z,963.01
2023-10-20T03:40:10.855Z,963.02
2023-10-20T03:41:10.879Z,962.96
2023-10-20T03:42:10.824Z,962.98
2023-10-20T03:43:10.803Z,962.97
2023-10-20T03:44:10.862Z,962.95
2023-10-20T03:45:10.774Z,962.93
2023-10-20T03:46:10.830Z,962.88
2023-10-20T03:47:10.812Z,962.95
2023-10-20T03:48:11.140Z,962.88
2023-10-20T03:49:10.726Z,962.85
2023-10-20T03:50:14.656Z,962.83
2023-10-20T03:51:10.703Z,962.82
2023-10-20T03:52:10.694Z,962.77
2023-10-20T03:53:10.685Z,962.80
2023-10-20T03:54:10.670Z,962.72
2023-10-20T03:55:10.635Z,962.74
2023-10-20T03:56:10.725Z,962.78
2023-10-20T03:57:10.617Z,962.73
2023-10-20T03:58:10.623Z,962.70
2023-10-20T03:59:10.604Z,962.69
2023-10-20T04:00:10.599Z,962.69
2023-10-20T04:01:10.569Z,962.67
2023-10-20T04:02:10.745Z,962.67
2023-10-20T04:03:10.644Z,962.67
2023-10-20T04:04:10.563Z,962.64
2023-10-20T04:05:10.517Z,962.64
2023-10-20T04:06:10.532Z,962.63
2023-10-20T04:07:11.221Z,962.59
2023-10-20T04:08:10.550Z,962.62
2023-10-20T04:09:10.454Z,962.60
2023-10-20T04:10:10.451Z,962.60
2023-10-20T04:11:10.463Z,962.65
2023-10-20T04:12:10.419Z,962.62
2023-10-20T04:13:10.385Z,962.58
2023-10-20T04:14:10.447Z,962.60
2023-10-20T04:15:10.381Z,962.53
2023-10-20T04:16:10.378Z,962.48
2023-10-20T04:17:10.412Z,962.43
2023-10-20T04:18:10.400Z,962.42
2023-10-20T04:19:10.310Z,962.35
2023-10-20T04:20:10.370Z,962.35
2023-10-20T04:21:10.272Z,962.28
2023-10-20T04:22:10.290Z,962.28
2023-10-20T04:23:10.303Z,962.25
2023-10-20T04:24:10.273Z,962.21
2023-10-20T04:25:10.226Z,962.19
2023-10-20T04:26:10.289Z,962.24
2023-10-20T04:27:10.200Z,962.22
2023-10-20T04:28:10.219Z,962.26
2023-10-20T04:29:10.229Z,962.32
2023-10-20T04:30:10.185Z,962.29
2023-10-20T04:31:10.144Z,962.35
2023-10-20T04:32:10.303Z,962.29
2023-10-20T04:33:10.204Z,962.31
2023-10-20T04:34:10.134Z,962.25
2023-10-20T04:35:10.151Z,962.32
2023-10-20T04:36:10.104Z,962.29
2023-10-20T04:37:10.095Z,962.24
2023-10-20T04:38:10.096Z,962.25
2023-10-20T04:39:10.023Z,962.25
2023-10-20T04:40:10.114Z,962.28
2023-10-20T04:41:10.036Z,962.29
2023-10-20T04:42:10.019Z,962.25
2023-10-20T04:43:09.985Z,962.17
2023-10-20T04:44:10.356Z,962.22
2023-10-20T04:45:09.966Z,962.23
2023-10-20T04:46:10.029Z,962.22
2023-10-20T04:47:09.962Z,962.24
2023-10-20T04:48:09.988Z,962.27
2023-10-20T04:49:09.923Z,962.26
2023-10-20T04:50:09.957Z,962.21
2023-10-20T04:51:09.888Z,962.20
2023-10-20T04:52:09.952Z,962.25
2023-10-20T04:53:09.884Z,962.23
2023-10-20T04:54:09.847Z,962.18
2023-10-20T04:55:09.819Z,962.08
2023-10-20T04:56:09.888Z,961.97
2023-10-20T04:57:09.784Z,961.88
2023-10-20T04:58:09.800Z,961.84
2023-10-20T04:59:09.796Z,961.90
2023-10-20T05:00:09.764Z,961.86
2023-10-20T05:01:09.748Z,961.84
2023-10-20T05:02:09.782Z,961.84
2023-10-20T05:03:09.752Z,961.82
2023-10-20T05:04:09.737Z,961.76
2023-10-20T05:05:09.712Z,961.73
2023-10-20T05:06:09.688Z,961.71
2023-10-20T05:07:09.653Z,961.69
2023-10-20T05:08:09.709Z,961.70
2023-10-20T05:09:09.633Z,961.72
2023-10-20T05:10:09.629Z,961.75
2023-10-20T05:11:09.613Z,961.75
2023-10-20T05:12:09.624Z,961.77
2023-10-20T05:13:09.588Z,961.71
2023-10-20T05:14:09.686Z,961.78
2023-10-20T05:15:09.551Z,961.71
2023-10-20T05:16:09.599Z,961.68
2023-10-20T05:17:09.602Z,961.66
2023-10-20T05:18:09.551Z,961.65
2023-10-20T05:19:09.498Z,961.59
2023-10-20T05:20:09.538Z,961.63
2023-10-20T05:21:09.486Z,961.59
2023-10-20T05:22:09.510Z,961.61
2023-10-20T05:23:09.481Z,961.55
2023-10-20T05:24:09.457Z,961.53
2023-10-20T05:25:09.443Z,961.53
2023-10-20T05:26:09.470Z,961.52
2023-10-20T05:27:09.384Z,961.52
2023-10-20T05:28:09.410Z,961.53
2023-10-20T05:29:09.472Z,961.50
2023-10-20T05:30:10.395Z,961.39
2023-10-20T05:31:09.390Z,961.39
2023-10-20T05:32:09.410Z,961.39
2023-10-20T05:33:09.318Z,961.34
2023-10-20T05:34:09.315Z,961.35
2023-10-20T05:35:09.304Z,961.32
2023-10-20T05:36:09.346Z,961.31
2023-10-20T05:37:09.251Z,961.35
2023-10-20T05:38:09.517Z,961.33
2023-10-20T05:39:09.240Z,961.33
2023-10-20T05:40:09.244Z,961.32
2023-10-20T05:41:09.230Z,961.34
2023-10-20T05:42:09.169Z,961.31
2023-10-20T05:43:09.218Z,961.30
2023-10-20T05:44:09.243Z,961.27
2023-10-20T05:45:09.148Z,961.23
2023-10-20T05:46:09.162Z,961.17
2023-10-20T05:47:09.128Z,961.14
2023-10-20T05:48:09.443Z,961.06
2023-10-20T05:49:09.059Z,961.04
2023-10-20T05:50:09.162Z,960.97
2023-10-20T05:51:09.042Z,960.90
2023-10-20T05:52:09.045Z,960.99
2023-10-20T05:53:09.056Z,960.90
2023-10-20T05:54:09.023Z,960.97
2023-10-20T05:55:08.978Z,960.93
2023-10-20T05:56:11.225Z,960.94
2023-10-20T05:57:08.952Z,960.94
2023-10-20T05:58:08.976Z,960.95
2023-10-20T05:59:08.941Z,960.92
2023-10-20T06:00:08.937Z,960.94
2023-10-20T06:01:08.937Z,960.86
2023-10-20T06:02:08.979Z,960.87
2023-10-20T06:03:08.931Z,960.90
2023-10-20T06:04:08.916Z,960.90
2023-10-20T06:05:08.885Z,960.91
2023-10-20T06:06:08.855Z,960.92
2023-10-20T06:07:08.840Z,960.92
2023-10-20T06:08:08.900Z,960.85
2023-10-20T06:09:08.807Z,960.85
2023-10-20T06:10:10.400Z,960.85
2023-10-20T06:11:08.769Z,960.76
2023-10-20T06:12:08.788Z,960.72
2023-10-20T06:13:08.758Z,960.71
2023-10-20T06:14:08.816Z,960.69
2023-10-20T06:15:08.725Z,960.66
2023-10-20T06:16:08.770Z,960.69
2023-10-20T06:17:08.723Z,960.62
2023-10-20T06:18:13.736Z,960.62
2023-10-20T06:19:09.707Z,960.59
2023-10-20T06:20:08.712Z,960.57
2023-10-20T06:21:08.651Z,960.55
2023-10-20T06:22:08.645Z,960.58
2023-10-20T06:23:08.636Z,960.49
2023-10-20T06:24:08.632Z,960.44
2023-10-20T06:25:08.619Z,960.51
2023-10-20T06:26:08.655Z,960.49
2023-10-20T06:27:08.554Z,960.52
2023-10-20T06:28:08.575Z,960.49
2023-10-20T06:29:08.567Z,960.42
2023-10-20T06:30:08.535Z,960.43
2023-10-20T06:31:08.541Z,960.38
2023-10-20T06:32:08.576Z,960.39
2023-10-20T06:33:08.541Z,960.34
2023-10-20T06:34:08.486Z,960.37
2023-10-20T06:35:08.479Z,960.38
2023-10-20T06:36:08.470Z,960.39
2023-10-20T06:37:08.470Z,960.28
2023-10-20T06:38:08.440Z,960.28
2023-10-20T06:39:08.394Z,960.24
2023-10-20T06:40:08.402Z,960.22
2023-10-20T06:41:08.397Z,960.30
2023-10-20T06:42:08.387Z,960.33
2023-10-20T06:43:08.360Z,960.37
2023-10-20T06:44:08.345Z,960.45
2023-10-20T06:45:08.316Z,960.54
2023-10-20T06:46:08.389Z,960.55
2023-10-20T06:47:08.357Z,960.60
2023-10-20T06:48:08.389Z,960.57
2023-10-20T06:49:08.278Z,960.53
2023-10-20T06:50:08.292Z,960.46
2023-10-20T06:51:08.238Z,960.40
2023-10-20T06:52:08.249Z,960.34
2023-10-20T06:53:08.250Z,960.33
2023-10-20T06:54:08.203Z,960.27
2023-10-20T06:55:40.269Z,960.29
2023-10-20T06:56:16.503Z,960.34
2023-10-20T06:57:09.162Z,960.28
2023-10-20T06:58:08.154Z,960.31
2023-10-20T06:59:08.136Z,960.33
2023-10-20T07:00:08.139Z,960.37
2023-10-20T07:01:08.204Z,960.35
2023-10-20T07:02:08.153Z,960.29
2023-10-20T07:03:08.277Z,960.27
2023-10-20T07:04:08.108Z,960.21
2023-10-20T07:05:08.067Z,960.19
2023-10-20T07:06:08.060Z,960.21
2023-10-20T07:07:08.036Z,960.26
2023-10-20T07:08:08.067Z,960.21
2023-10-20T07:09:07.995Z,960.27
2023-10-20T07:10:08.016Z,960.25
2023-10-20T07:11:08.098Z,960.19
2023-10-20T07:12:09.771Z,960.19
2023-10-20T07:13:07.996Z,960.17
2023-10-20T07:14:08.741Z,960.17
2023-10-20T07:15:07.920Z,960.15
2023-10-20T07:16:07.969Z,960.13
2023-10-20T07:17:07.954Z,960.07
2023-10-20T07:18:07.986Z,960.05
2023-10-20T07:19:07.907Z,960.05
2023-10-20T07:20:08.018Z,959.99
2023-10-20T07:21:07.834Z,959.94
2023-10-20T07:22:07.854Z,959.99
2023-10-20T07:23:07.816Z,959.93
2023-10-20T07:24:07.829Z,959.93
2023-10-20T07:25:07.799Z,959.87
2023-10-20T07:26:07.781Z,959.88
2023-10-20T07:27:07.772Z,959.90
2023-10-20T07:28:07.762Z,959.93
2023-10-20T07:29:07.717Z,959.96
2023-10-20T07:30:07.965Z,959.97
2023-10-20T07:31:07.722Z,959.97
2023-10-20T07:32:07.717Z,959.88
2023-10-20T07:33:07.776Z,959.85
2023-10-20T07:34:07.700Z,959.88
2023-10-20T07:35:07.656Z,959.99
2023-10-20T07:36:07.661Z,959.90
2023-10-20T07:37:07.642Z,959.89
2023-10-20T07:38:07.606Z,959.83
2023-10-20T07:39:07.620Z,959.80
2023-10-20T07:40:07.656Z,959.80
2023-10-20T07:41:07.629Z,959.79
2023-10-20T07:42:07.550Z,959.85
2023-10-20T07:43:07.621Z,959.90
2023-10-20T07:44:07.533Z,959.93
2023-10-20T07:45:07.546Z,959.92
2023-10-20T07:46:07.542Z,959.92
2023-10-20T07:47:07.505Z,959.94
2023-10-20T07:48:07.617Z,959.94
2023-10-20T07:49:07.512Z,959.92
2023-10-20T07:50:07.673Z,959.96
2023-10-20T07:51:07.467Z,959.97
2023-10-20T07:52:07.419Z,959.98
2023-10-20T07:53:07.426Z,959.94
2023-10-20T07:54:07.395Z,959.91
2023-10-20T07:55:07.464Z,959.89
2023-10-20T07:56:07.402Z,959.86
2023-10-20T07:57:07.368Z,959.91
2023-10-20T07:58:07.337Z,959.89
2023-10-20T07:59:07.348Z,959.94
2023-10-20T08:00:07.314Z,959.91
2023-10-20T08:01:07.362Z,959.93
2023-10-20T08:02:07.316Z,959.86
2023-10-20T08:03:07.514Z,959.90
2023-10-20T08:04:07.484Z,959.92
2023-10-20T08:05:07.571Z,959.91
2023-10-20T08:06:07.476Z,959.87
2023-10-20T08:07:07.544Z,959.90
2023-10-20T08:08:07.203Z,959.91
2023-10-20T08:09:07.213Z,959.94
2023-10-20T08:10:07.173Z,959.93
2023-10-20T08:11:07.190Z,959.95
2023-10-20T08:12:07.155Z,959.99
2023-10-20T08:13:07.223Z,959.97
2023-10-20T08:14:07.124Z,959.94
2023-10-20T08:15:07.143Z,959.91
2023-10-20T08:16:07.196Z,959.92
2023-10-20T08:17:07.121Z,959.92
2023-10-20T08:18:07.205Z,959.93
2023-10-20T08:19:07.114Z,960.00
2023-10-20T08:20:07.064Z,959.93
2023-10-20T08:21:07.059Z,960.01
2023-10-20T08:22:07.010Z,959.94
2023-10-20T08:23:07.042Z,959.97
2023-10-20T08:24:06.997Z,959.99
2023-10-20T08:25:07.046Z,960.00
2023-10-20T08:26:06.963Z,960.07
2023-10-20T08:27:06.980Z,960.03
2023-10-20T08:28:06.936Z,960.04
2023-10-20T08:29:06.971Z,960.03
2023-10-20T08:30:06.925Z,960.04
2023-10-20T08:31:06.967Z,960.03
2023-10-20T08:32:06.886Z,960.06
2023-10-20T08:33:06.971Z,960.03
2023-10-20T08:34:06.863Z,959.98
2023-10-20T08:35:06.881Z,960.00
2023-10-20T08:36:06.831Z,959.95
2023-10-20T08:37:06.868Z,959.92
2023-10-20T08:38:06.818Z,959.87
2023-10-20T08:39:06.819Z,959.86
2023-10-20T08:40:06.785Z,959.81
2023-10-20T08:41:13.125Z,959.80
2023-10-20T08:42:07.768Z,959.77
2023-10-20T08:43:06.764Z,959.79
2023-10-20T08:44:06.733Z,959.76
2023-10-20T08:45:06.739Z,959.77
2023-10-20T08:46:06.752Z,959.75
2023-10-20T08:47:06.764Z,959.72
2023-10-20T08:48:06.767Z,959.74
2023-10-20T08:49:06.687Z,959.75
2023-10-20T08:50:06.641Z,959.74
2023-10-20T08:51:06.724Z,959.70
2023-10-20T08:52:06.633Z,959.70
2023-10-20T08:53:06.634Z,959.70
2023-10-20T08:54:06.634Z,959.71
2023-10-20T08:55:06.621Z,959.75
2023-10-20T08:56:06.619Z,959.78
2023-10-20T08:57:06.596Z,959.78
2023-10-20T08:58:06.557Z,959.82
2023-10-20T08:59:06.583Z,959.75
2023-10-20T09:00:06.538Z,959.77
2023-10-20T09:01:06.561Z,959.73
2023-10-20T09:02:06.513Z,959.73
2023-10-20T09:03:06.675Z,959.72
2023-10-20T09:04:06.560Z,959.70
2023-10-20T09:05:06.490Z,959.67
2023-10-20T09:06:06.620Z,959.51
2023-10-20T09:07:06.543Z,959.54
2023-10-20T09:08:06.415Z,959.48
2023-10-20T09:09:06.425Z,959.46
2023-10-20T09:10:06.418Z,959.54
2023-10-20T09:11:06.417Z,959.60
2023-10-20T09:12:06.440Z,959.58
2023-10-20T09:13:06.375Z,959.56
2023-10-20T09:14:06.365Z,959.60
2023-10-20T09:15:06.355Z,959.66
2023-10-20T09:16:06.349Z,959.69
2023-10-20T09:17:06.353Z,959.68
2023-10-20T09:18:06.404Z,959.71
2023-10-20T09:19:06.302Z,959.61
2023-10-20T09:20:06.265Z,959.59
2023-10-20T09:21:06.277Z,959.61
2023-10-20T09:22:06.228Z,959.57
2023-10-20T09:23:06.242Z,959.62
2023-10-20T09:24:06.265Z,959.66
2023-10-20T09:25:06.233Z,959.68
2023-10-20T09:26:06.219Z,959.70
2023-10-20T09:27:06.351Z,959.65
2023-10-20T09:28:07.264Z,959.68
2023-10-20T09:30:06.151Z,959.68
2023-10-20T09:31:06.213Z,959.59
2023-10-20T09:32:06.222Z,959.61
2023-10-20T09:33:06.182Z,959.62
2023-10-20T09:34:06.098Z,959.60
2023-10-20T09:35:06.091Z,959.59
2023-10-20T09:36:06.089Z,959.60
2023-10-20T09:37:06.062Z,959.56
2023-10-20T09:38:06.033Z,959.58
2023-10-20T09:39:06.079Z,959.54
2023-10-20T09:40:05.997Z,959.64
2023-10-20T09:41:06.042Z,959.54
2023-10-20T09:42:06.024Z,959.51
2023-10-20T09:43:15.121Z,959.55
2023-10-20T09:44:07.170Z,959.53
2023-10-20T09:45:06.039Z,959.49
2023-10-20T09:46:05.914Z,959.49
2023-10-20T09:47:05.958Z,959.47
2023-10-20T09:48:06.030Z,959.45
2023-10-20T09:49:05.917Z,959.47
2023-10-20T09:50:05.878Z,959.47
2023-10-20T09:51:05.911Z,959.45
2023-10-20T09:52:05.849Z,959.46
2023-10-20T09:53:05.866Z,959.43
2023-10-20T09:54:05.862Z,959.42
2023-10-20T09:55:05.820Z,959.36
2023-10-20T09:56:05.796Z,959.39
2023-10-20T09:57:05.820Z,959.42
2023-10-20T09:58:05.787Z,959.49
2023-10-20T09:59:05.806Z,959.46
2023-10-20T10:00:05.774Z,959.55
2023-10-20T10:01:05.795Z,959.53
2023-10-20T10:02:05.723Z,959.50
2023-10-20T10:03:05.808Z,959.48
2023-10-20T10:04:05.799Z,959.50
2023-10-20T10:05:05.699Z,959.47
2023-10-20T10:06:05.680Z,959.61
2023-10-20T10:07:05.660Z,959.61
2023-10-20T10:08:05.626Z,959.64
2023-10-20T10:09:05.673Z,959.61
2023-10-20T10:10:08.728Z,959.67
2023-10-20T10:11:05.617Z,959.64
2023-10-20T10:12:05.601Z,959.62
2023-10-20T10:13:05.590Z,959.71
2023-10-20T10:14:05.551Z,959.73
2023-10-20T10:15:05.602Z,959.75
2023-10-20T10:16:05.525Z,959.76
2023-10-20T10:17:05.596Z,959.82
2023-10-20T10:18:05.592Z,959.81
2023-10-20T10:19:05.496Z,959.84
2023-10-20T10:20:05.462Z,959.84
2023-10-20T10:21:05.484Z,959.87
2023-10-20T10:22:06.321Z,959.85
2023-10-20T10:23:07.799Z,959.90
2023-10-20T10:24:05.435Z,959.89
2023-10-20T10:25:05.420Z,959.93
2023-10-20T10:26:05.413Z,959.90
2023-10-20T10:27:05.506Z,959.86
2023-10-20T10:28:05.369Z,959.82
2023-10-20T10:29:05.437Z,959.74
2023-10-20T10:30:05.471Z,959.72
2023-10-20T10:31:05.381Z,959.75
2023-10-20T10:32:09.726Z,959.72
2023-10-20T10:33:05.392Z,959.74
2023-10-20T10:34:05.355Z,959.80
2023-10-20T10:35:06.136Z,959.78
2023-10-20T10:36:05.309Z,959.72
2023-10-20T10:37:05.266Z,959.80
2023-10-20T10:38:05.232Z,959.75
2023-10-20T10:39:05.248Z,959.74
2023-10-20T10:40:05.189Z,959.81
2023-10-20T10:41:05.213Z,959.70
2023-10-20T10:42:05.210Z,959.70
2023-10-20T10:43:05.220Z,959.64
2023-10-20T10:44:05.157Z,959.65
2023-10-20T10:45:05.336Z,959.46
2023-10-20T10:46:05.222Z,959.54
2023-10-20T10:47:05.159Z,959.44
2023-10-20T10:48:05.203Z,959.43
2023-10-20T10:49:05.123Z,959.35
2023-10-20T10:50:05.106Z,959.34
2023-10-20T10:51:05.082Z,959.34
2023-10-20T10:52:05.060Z,959.34
2023-10-20T10:53:05.046Z,959.34
2023-10-20T10:54:05.079Z,959.30
2023-10-20T10:55:05.053Z,959.28
2023-10-20T10:56:05.022Z,959.22
2023-10-20T10:57:05.089Z,959.24
2023-10-20T10:58:04.963Z,959.29
2023-10-20T10:59:04.981Z,959.20
2023-10-20T11:00:04.981Z,959.22
2023-10-20T11:01:05.040Z,959.16
2023-10-20T11:02:04.918Z,959.12
2023-10-20T11:03:06.983Z,959.13
2023-10-20T11:04:07.133Z,959.10
2023-10-20T11:05:04.936Z,959.14
2023-10-20T11:06:04.902Z,959.12
2023-10-20T11:07:04.882Z,959.03
2023-10-20T11:08:04.835Z,959.03
2023-10-20T11:09:04.867Z,959.02
2023-10-20T11:10:04.828Z,959.01
2023-10-20T11:11:04.839Z,958.96
2023-10-20T11:12:04.802Z,958.94
2023-10-20T11:13:04.788Z,958.91
2023-10-20T11:14:04.745Z,958.82
2023-10-20T11:15:04.800Z,958.81
2023-10-20T11:16:04.757Z,958.69
2023-10-20T11:17:04.777Z,958.67
2023-10-20T11:18:04.765Z,958.63
2023-10-20T11:19:04.725Z,958.55
2023-10-20T11:20:04.686Z,958.44
2023-10-20T11:21:04.738Z,958.47
2023-10-20T11:22:04.693Z,958.44
2023-10-20T11:23:04.682Z,958.44
2023-10-20T11:24:04.673Z,958.43
2023-10-20T11:25:04.638Z,958.41
2023-10-20T11:26:04.717Z,958.48
2023-10-20T11:27:04.666Z,958.52
2023-10-20T11:28:04.564Z,958.51
2023-10-20T11:29:04.578Z,958.47
2023-10-20T11:30:04.582Z,958.41
2023-10-20T11:31:04.694Z,958.38
2023-10-20T11:32:04.578Z,958.27
2023-10-20T11:33:04.730Z,958.25
2023-10-20T11:34:04.490Z,958.25
2023-10-20T11:35:04.578Z,958.27
2023-10-20T11:36:04.503Z,958.29
2023-10-20T11:37:04.489Z,958.27
2023-10-20T11:38:08.370Z,958.30
2023-10-20T11:39:04.449Z,958.31
2023-10-20T11:40:04.421Z,958.33
2023-10-20T11:41:04.428Z,958.38
2023-10-20T11:42:04.416Z,958.42
2023-10-20T11:43:04.408Z,958.34
2023-10-20T11:44:04.394Z,958.40
2023-10-20T11:45:04.389Z,958.44
2023-10-20T11:46:04.364Z,958.42
2023-10-20T11:47:04.339Z,958.43
2023-10-20T11:48:04.452Z,958.43
2023-10-20T11:49:04.328Z,958.41
2023-10-20T11:50:04.354Z,958.38
2023-10-20T11:51:04.297Z,958.39
2023-10-20T11:52:04.267Z,958.33
2023-10-20T11:53:05.035Z,958.30
2023-10-20T11:54:04.291Z,958.30
2023-10-20T11:55:04.275Z,958.31
2023-10-20T11:56:04.233Z,958.33
2023-10-20T11:57:04.211Z,958.34
2023-10-20T11:58:04.191Z,958.21
2023-10-20T11:59:04.196Z,958.22
2023-10-20T12:00:04.205Z,958.14
2023-10-20T12:01:04.158Z,958.13
2023-10-20T12:02:04.182Z,958.07
2023-10-20T12:03:04.221Z,958.09
2023-10-20T12:04:04.259Z,958.06
2023-10-20T12:05:04.092Z,958.09
2023-10-20T12:06:04.129Z,958.01
2023-10-20T12:07:04.061Z,958.01
2023-10-20T12:08:04.082Z,958.06
2023-10-20T12:09:04.058Z,957.99
2023-10-20T12:10:04.055Z,957.95
2023-10-20T12:11:04.094Z,958.02
2023-10-20T12:12:04.057Z,957.98
2023-10-20T12:13:03.982Z,957.88
2023-10-20T12:14:04.002Z,957.86
2023-10-20T12:15:04.181Z,957.86
2023-10-20T12:16:03.978Z,957.84
2023-10-20T12:17:03.950Z,957.85
2023-10-20T12:18:04.012Z,957.88
2023-10-20T12:19:03.919Z,957.82
2023-10-20T12:20:03.950Z,957.82
2023-10-20T12:21:03.894Z,957.84
2023-10-20T12:22:03.895Z,957.89
2023-10-20T12:23:03.857Z,957.77
2023-10-20T12:24:03.913Z,957.75
2023-10-20T12:25:03.855Z,957.84
2023-10-20T12:26:03.902Z,957.85
2023-10-20T12:27:03.804Z,957.86
2023-10-20T12:28:03.828Z,957.80
2023-10-20T12:29:03.777Z,957.93